Cottonwood, South Dakota
Current Conditions -  °F | °C
As of 10:55 PM on Thursday 30 Oct 2014 (Local Time) from KPHP Reporting Station
Overcast Overcast  
Wind Chill: 30°   Ceiling: 1100
Heat Index: 34°   Visibility: 10mi
Dew Point: 30°   Wind: 5mph
Humidity: 85%   Direction: 70°ENE
Pressure: 30.53"   Gusts: NA
Location:  44.0813°N, 102.067°W
Report Text: KPHP 310455Z AUTO 07004KT 10SM OVC011 01/M01 A3053 RMK AO2 SLP352 T00111011
Loading
Personal Weather Stations






























Interactive Weather Map
Tropical Storm Tracking
New forecast layout! Learn more

10-Day Weather Forecast

Advertisements
Track Severe Weather on mobile